Forest Hill, Texas
Current Conditions -  °F | °C
As of 9:55 PM on Saturday 25 Oct 2014 (Local Time) from KFWS Reporting Station
Clear Clear  
Wind Chill: 75°   Ceiling: Unl
Heat Index: 75°   Visibility: 10mi
Dew Point: 60°   Wind: 7mph
Humidity: 60%   Direction: 180°S
Pressure: 30.08"   Gusts: NA
Location:  32.66°N, 97.27°W
Report Text: KFWS 260255Z AUTO 18006KT 10SM CLR 24/16 A3008 RMK AO2 T02380155
Loading
Personal Weather Stations






























Interactive Weather Map
Tropical Storm Tracking
New forecast layout! Learn more

10-Day Weather Forecast

Advertisements
Track Severe Weather on mobile